createdAt,value
2022-11-06T00:01:21.237Z,9.92
2022-11-06T00:03:47.889Z,9.91
2022-11-06T00:06:34.955Z,9.92
2022-11-06T00:09:05.161Z,9.89
2022-11-06T00:11:31.834Z,9.86
2022-11-06T00:13:59.952Z,9.88
2022-11-06T00:16:26.784Z,9.89
2022-11-06T00:18:53.678Z,9.90
2022-11-06T00:21:25.807Z,9.89
2022-11-06T00:23:53.680Z,9.88
2022-11-06T00:26:23.606Z,9.88
2022-11-06T00:28:50.971Z,9.85
2022-11-06T00:31:19.808Z,9.85
2022-11-06T00:33:46.841Z,9.85
2022-11-06T00:36:16.286Z,9.85
2022-11-06T00:38:43.281Z,9.84
2022-11-06T00:41:12.654Z,9.82
2022-11-06T00:43:39.291Z,9.82
2022-11-06T00:46:14.189Z,9.81
2022-11-06T00:48:41.672Z,9.81
2022-11-06T00:51:15.057Z,9.80
2022-11-06T00:53:42.936Z,9.80
2022-11-06T00:56:15.268Z,9.79
2022-11-06T00:58:42.148Z,9.79
2022-11-06T01:01:15.325Z,9.80
2022-11-06T01:03:44.178Z,9.79
2022-11-06T01:06:17.192Z,9.79
2022-11-06T01:08:44.929Z,9.77
2022-11-06T01:11:14.913Z,9.80
2022-11-06T01:13:42.218Z,9.76
2022-11-06T01:16:13.020Z,9.76
2022-11-06T01:18:41.605Z,9.79
2022-11-06T01:21:13.241Z,9.79
2022-11-06T01:23:40.280Z,9.79
2022-11-06T01:26:08.719Z,9.77
2022-11-06T01:28:35.255Z,9.77
2022-11-06T01:31:11.867Z,9.78
2022-11-06T01:33:38.601Z,9.79
2022-11-06T01:36:05.906Z,9.79
2022-11-06T01:38:32.422Z,9.80
2022-11-06T01:40:59.027Z,9.76
2022-11-06T01:43:52.221Z,9.77
2022-11-06T01:46:20.279Z,9.80
2022-11-06T01:48:52.843Z,9.79
2022-11-06T01:51:20.994Z,9.79
2022-11-06T01:53:47.796Z,9.80
2022-11-06T01:56:15.372Z,9.79
2022-11-06T01:58:46.817Z,9.81
2022-11-06T02:01:14.173Z,9.81
2022-11-06T02:03:48.236Z,9.81
2022-11-06T02:06:14.701Z,9.76
2022-11-06T02:08:41.283Z,9.77
2022-11-06T02:11:08.481Z,9.79
2022-11-06T02:13:52.626Z,9.80
2022-11-06T02:16:33.099Z,9.79
2022-11-06T02:19:14.566Z,9.77
2022-11-06T02:22:05.705Z,9.78
2022-11-06T02:24:48.757Z,9.80
2022-11-06T02:27:18.722Z,9.80
2022-11-06T02:29:54.306Z,9.81
2022-11-06T02:32:27.690Z,9.78
2022-11-06T02:34:56.065Z,9.82
2022-11-06T02:37:29.934Z,9.80
2022-11-06T02:40:00.319Z,9.82
2022-11-06T02:42:29.857Z,9.81
2022-11-06T02:44:58.046Z,9.85
2022-11-06T02:47:29.177Z,9.86
2022-11-06T02:50:11.149Z,9.85
2022-11-06T02:52:43.069Z,9.87
2022-11-06T02:55:26.653Z,9.87
2022-11-06T02:57:56.941Z,9.90
2022-11-06T03:00:25.244Z,9.88
2022-11-06T03:03:10.100Z,9.92
2022-11-06T03:05:45.968Z,9.86
2022-11-06T03:08:26.306Z,9.92
2022-11-06T03:10:57.597Z,9.94
2022-11-06T03:13:33.035Z,9.93
2022-11-06T03:16:07.889Z,9.94
2022-11-06T03:19:07.347Z,9.92
2022-11-06T03:21:49.767Z,9.88
2022-11-06T03:24:28.272Z,9.95
2022-11-06T03:26:59.660Z,9.90
2022-11-06T03:29:40.064Z,9.92
2022-11-06T03:32:15.498Z,9.96
2022-11-06T03:34:58.001Z,9.97
2022-11-06T03:37:42.664Z,9.92
2022-11-06T03:40:14.159Z,9.91
2022-11-06T03:42:43.552Z,9.96
2022-11-06T03:45:15.247Z,9.96
2022-11-06T03:47:59.822Z,9.95
2022-11-06T03:50:27.746Z,9.97
2022-11-06T03:53:12.143Z,9.94
2022-11-06T03:55:43.373Z,9.95
2022-11-06T03:58:15.403Z,9.95
2022-11-06T04:00:43.264Z,9.97
2022-11-06T04:03:27.113Z,9.96
2022-11-06T04:05:58.876Z,9.96
2022-11-06T04:08:45.811Z,10.00
2022-11-06T04:11:36.173Z,10.00
2022-11-06T04:14:05.456Z,9.99
2022-11-06T04:16:36.047Z,10.02
2022-11-06T04:19:02.790Z,10.03
2022-11-06T04:21:53.945Z,10.03
2022-11-06T04:24:45.316Z,10.05
2022-11-06T04:27:40.327Z,10.00
2022-11-06T04:30:15.265Z,10.02
2022-11-06T04:32:57.151Z,10.05
2022-11-06T04:35:29.026Z,9.99
2022-11-06T04:38:01.513Z,10.01
2022-11-06T04:40:43.257Z,10.02
2022-11-06T04:43:41.842Z,10.02
2022-11-06T04:46:13.320Z,10.04
2022-11-06T04:48:41.293Z,10.07
2022-11-06T04:51:10.871Z,10.08
2022-11-06T04:53:39.176Z,10.06
2022-11-06T04:56:25.694Z,10.08
2022-11-06T04:58:52.418Z,10.08
2022-11-06T05:01:19.023Z,10.10
2022-11-06T05:03:45.672Z,10.10
2022-11-06T05:06:12.938Z,10.12
2022-11-06T05:08:39.617Z,10.13
2022-11-06T05:11:06.838Z,10.13
2022-11-06T05:13:33.369Z,10.13
2022-11-06T05:16:00.570Z,10.10
2022-11-06T05:18:28.180Z,10.15
2022-11-06T05:21:15.052Z,10.12
2022-11-06T05:23:41.806Z,10.14
2022-11-06T05:26:09.057Z,10.13
2022-11-06T05:28:35.591Z,10.16
2022-11-06T05:31:02.128Z,10.16
2022-11-06T05:33:28.863Z,10.17
2022-11-06T05:35:55.760Z,10.16
2022-11-06T05:38:22.449Z,10.16
2022-11-06T05:40:48.896Z,10.19
2022-11-06T05:43:15.377Z,10.19
2022-11-06T05:45:41.834Z,10.21
2022-11-06T05:48:08.439Z,10.20
2022-11-06T05:50:34.892Z,10.17
2022-11-06T05:53:04.017Z,10.19
2022-11-06T05:55:30.630Z,10.19
2022-11-06T05:57:57.199Z,10.21
2022-11-06T06:00:23.742Z,10.20
2022-11-06T06:02:50.489Z,10.19
2022-11-06T06:05:17.392Z,10.15
2022-11-06T06:07:43.951Z,10.20
2022-11-06T06:10:11.221Z,10.17
2022-11-06T06:12:39.545Z,10.20
2022-11-06T06:15:07.773Z,10.20
2022-11-06T06:17:34.275Z,10.20
2022-11-06T06:20:00.845Z,10.20
2022-11-06T06:22:27.450Z,10.19
2022-11-06T06:24:54.113Z,10.19
2022-11-06T06:27:20.665Z,10.19
2022-11-06T06:29:47.224Z,10.19
2022-11-06T06:32:13.771Z,10.18
2022-11-06T10:30:11.956Z,11.00
2022-11-06T10:32:50.666Z,11.06
2022-11-06T10:35:26.457Z,11.11
2022-11-06T10:38:01.144Z,11.14
2022-11-06T10:40:31.522Z,11.18
2022-11-06T10:43:19.663Z,11.20
2022-11-06T10:45:52.767Z,11.26
2022-11-06T10:48:31.106Z,11.29
2022-11-06T10:51:06.547Z,11.32
2022-11-06T10:54:07.124Z,11.35
2022-11-06T10:56:53.745Z,11.39
2022-11-06T10:59:20.857Z,11.44
2022-11-06T11:01:47.531Z,11.48
2022-11-06T11:04:14.112Z,11.52
2022-11-06T11:06:41.547Z,11.53
2022-11-06T11:09:32.295Z,11.59
2022-11-06T11:11:59.851Z,11.63
2022-11-06T11:14:31.888Z,11.66
2022-11-06T11:17:07.611Z,11.67
2022-11-06T11:19:41.496Z,11.72
2022-11-06T11:22:21.510Z,11.74
2022-11-06T11:25:03.270Z,11.76
2022-11-06T11:27:32.822Z,11.78
2022-11-06T11:29:59.424Z,11.80
2022-11-06T11:32:29.586Z,11.84
2022-11-06T11:34:57.333Z,11.85
2022-11-06T11:37:28.248Z,11.89
2022-11-06T11:39:54.922Z,11.92
2022-11-06T11:42:29.046Z,11.94
2022-11-06T11:45:10.550Z,11.90
2022-11-06T11:47:39.091Z,11.95
2022-11-06T11:50:26.387Z,11.96
2022-11-06T11:53:11.760Z,12.00
2022-11-06T11:55:43.597Z,12.03
2022-11-06T11:58:20.860Z,12.05
2022-11-06T12:00:53.336Z,12.09
2022-11-06T12:03:21.688Z,12.11
2022-11-06T12:05:48.480Z,12.13
2022-11-06T12:08:24.464Z,12.15
2022-11-06T12:10:51.218Z,12.18
2022-11-06T12:13:21.346Z,12.20
2022-11-06T12:15:53.797Z,12.22
2022-11-06T12:18:27.590Z,12.22
2022-11-06T12:21:08.085Z,12.22
2022-11-06T12:23:43.539Z,12.24
2022-11-06T12:26:32.438Z,12.24
2022-11-06T12:29:14.001Z,12.26
2022-11-06T12:31:52.899Z,12.28
2022-11-06T12:34:38.381Z,12.28
2022-11-06T12:37:21.666Z,12.30
2022-11-06T12:40:25.297Z,12.29
2022-11-06T12:42:59.521Z,12.30
2022-11-06T12:45:46.440Z,12.30
2022-11-06T12:48:48.021Z,12.32
2022-11-06T12:51:33.965Z,12.31
2022-11-06T12:54:00.473Z,12.35
2022-11-06T12:56:40.069Z,12.37
2022-11-06T12:59:24.991Z,12.39
2022-11-06T13:02:01.402Z,12.37
2022-11-06T13:04:35.694Z,12.38
2022-11-06T13:07:25.709Z,12.36
2022-11-06T13:10:03.592Z,12.39
2022-11-06T13:12:43.827Z,12.39
2022-11-06T13:15:27.768Z,12.43
2022-11-06T13:18:12.759Z,12.44
2022-11-06T13:20:45.399Z,12.44
2022-11-06T13:23:37.790Z,12.47
2022-11-06T13:26:47.354Z,12.44
2022-11-06T13:29:17.954Z,12.47
2022-11-06T13:31:52.370Z,12.46
2022-11-06T13:34:24.426Z,12.47
2022-11-06T13:36:56.215Z,12.49
2022-11-06T13:39:25.722Z,12.51
2022-11-06T13:41:54.910Z,12.51
2022-11-06T13:44:23.266Z,12.52
2022-11-06T13:47:16.583Z,12.53
2022-11-06T13:49:51.903Z,12.54
2022-11-06T13:52:33.759Z,12.54
2022-11-06T13:55:04.941Z,12.53
2022-11-06T13:57:59.326Z,12.52
2022-11-06T14:00:26.037Z,12.55
2022-11-06T14:03:36.678Z,12.53
2022-11-06T14:06:06.781Z,12.54
2022-11-06T14:08:47.440Z,12.52
2022-11-06T14:11:38.705Z,12.50
2022-11-06T14:14:07.997Z,12.52
2022-11-06T14:16:37.547Z,12.55
2022-11-06T14:19:13.703Z,12.54
2022-11-06T14:21:40.204Z,12.55
2022-11-06T14:24:20.010Z,12.53
2022-11-06T14:26:49.256Z,12.53
2022-11-06T14:29:28.238Z,12.53
2022-11-06T14:32:32.885Z,12.53
2022-11-06T14:35:28.236Z,12.50
2022-11-06T14:38:09.663Z,12.50
2022-11-06T14:40:39.800Z,12.50
2022-11-06T14:43:24.341Z,12.49
2022-11-06T14:45:56.364Z,12.44
2022-11-06T14:48:35.538Z,12.44
2022-11-06T14:51:05.510Z,12.47
2022-11-06T14:53:37.914Z,12.47
2022-11-06T14:56:08.088Z,12.47
2022-11-06T14:58:38.276Z,12.46
2022-11-06T15:01:10.924Z,12.46
2022-11-06T15:03:46.790Z,12.46
2022-11-06T15:06:16.122Z,12.45
2022-11-06T15:08:45.460Z,12.45
2022-11-06T15:11:30.609Z,12.42
2022-11-06T15:14:17.005Z,12.40
2022-11-06T15:16:53.551Z,12.38
2022-11-06T15:19:26.858Z,12.39
2022-11-06T15:22:05.463Z,12.38
2022-11-06T15:24:35.921Z,12.37
2022-11-06T15:27:15.021Z,12.36
2022-11-06T15:29:43.872Z,12.35
2022-11-06T15:32:17.054Z,12.35
2022-11-06T15:34:50.167Z,12.34
2022-11-06T15:37:45.121Z,12.30
2022-11-06T15:40:23.960Z,12.29
2022-11-06T15:42:51.067Z,12.30
2022-11-06T15:45:17.466Z,12.30
2022-11-06T15:48:01.707Z,12.22
2022-11-06T15:50:36.239Z,12.24
2022-11-06T15:53:11.893Z,12.24
2022-11-06T15:55:44.661Z,12.21
2022-11-06T15:58:30.615Z,12.19
2022-11-06T16:00:59.812Z,12.20
2022-11-06T16:03:30.378Z,12.18
2022-11-06T16:06:00.529Z,12.19
2022-11-06T16:08:29.791Z,12.14
2022-11-06T16:10:58.242Z,12.16
2022-11-06T16:13:26.071Z,12.14
2022-11-06T16:16:02.374Z,12.11
2022-11-06T16:18:44.734Z,12.10
2022-11-06T16:21:18.802Z,12.10
2022-11-06T16:23:47.617Z,12.03
2022-11-06T16:26:19.007Z,12.01
2022-11-06T16:28:49.080Z,11.99
2022-11-06T16:31:22.585Z,12.02
2022-11-06T16:34:02.322Z,11.98
2022-11-06T16:36:48.188Z,11.99
2022-11-06T16:39:17.771Z,11.99
2022-11-06T16:42:19.650Z,11.93
2022-11-06T16:44:47.569Z,11.94
2022-11-06T16:47:22.461Z,11.95
2022-11-06T16:49:53.851Z,11.92
2022-11-06T16:52:41.485Z,11.90
2022-11-06T16:55:16.774Z,11.90
2022-11-06T16:57:51.941Z,11.89
2022-11-06T17:00:21.813Z,11.89
2022-11-06T17:02:51.194Z,11.87
2022-11-06T17:05:21.641Z,11.89
2022-11-06T17:07:49.318Z,11.87
2022-11-06T17:10:34.425Z,11.84
2022-11-06T17:13:18.165Z,11.81
2022-11-06T17:15:48.470Z,11.81
2022-11-06T17:18:18.520Z,11.82
2022-11-06T17:20:48.859Z,11.79
2022-11-06T17:23:16.692Z,11.79
2022-11-06T17:25:45.002Z,11.79
2022-11-06T17:28:11.941Z,11.78
2022-11-06T17:30:38.634Z,11.79
2022-11-06T17:33:05.357Z,11.78
2022-11-06T17:35:32.101Z,11.77
2022-11-06T17:38:03.145Z,11.75
2022-11-06T17:40:32.721Z,11.70
2022-11-06T17:42:59.329Z,11.71
2022-11-06T17:45:25.918Z,11.71
2022-11-06T17:47:52.524Z,11.69
2022-11-06T17:50:19.136Z,11.66
2022-11-06T17:52:45.673Z,11.68
2022-11-06T17:55:12.543Z,11.66
2022-11-06T17:57:39.278Z,11.65
2022-11-06T18:00:06.632Z,11.64
2022-11-06T18:02:59.869Z,11.62
2022-11-06T18:05:23.869Z,11.57
2022-11-06T18:07:50.368Z,11.60
2022-11-06T18:10:16.931Z,11.60
2022-11-06T18:12:43.463Z,11.58
2022-11-06T18:15:10.694Z,11.57
2022-11-06T18:17:37.234Z,11.57
2022-11-06T18:20:04.134Z,11.56
2022-11-06T18:22:30.666Z,11.57
2022-11-06T18:24:57.445Z,11.55
2022-11-06T18:27:23.952Z,11.54
2022-11-06T18:29:50.490Z,11.51
2022-11-06T18:32:16.987Z,11.52
2022-11-06T18:34:43.528Z,11.51
2022-11-06T18:37:10.105Z,11.49
2022-11-06T18:39:36.612Z,11.48
2022-11-06T18:42:03.278Z,11.47
2022-11-06T18:44:29.838Z,11.47
2022-11-06T18:46:56.397Z,11.45
2022-11-06T18:49:22.948Z,11.43
2022-11-06T18:51:49.508Z,11.45
2022-11-06T18:54:16.088Z,11.44
2022-11-06T18:56:42.641Z,11.42
2022-11-06T18:59:14.509Z,11.41
2022-11-06T19:01:41.409Z,11.40
2022-11-06T19:04:10.530Z,11.37
2022-11-06T19:06:39.175Z,11.41
2022-11-06T19:09:09.881Z,11.38
2022-11-06T19:11:36.540Z,11.38
2022-11-06T19:14:03.170Z,11.35
2022-11-06T19:16:29.712Z,11.36
2022-11-06T19:21:28.552Z,11.31
2022-11-06T19:24:03.301Z,11.34
2022-11-06T19:26:32.518Z,11.31
2022-11-06T19:29:00.177Z,11.30
2022-11-06T19:31:30.634Z,11.29
2022-11-06T19:33:58.703Z,11.31
2022-11-06T19:36:25.412Z,11.28
2022-11-06T19:38:52.264Z,11.28
2022-11-06T19:41:19.285Z,11.27
2022-11-06T19:43:45.913Z,11.26
2022-11-06T19:46:12.515Z,11.27
2022-11-06T19:48:39.035Z,11.28
2022-11-06T19:51:10.881Z,11.25
2022-11-06T19:53:38.336Z,11.26
2022-11-06T19:56:08.558Z,11.25
2022-11-06T19:58:35.967Z,11.25
2022-11-06T20:01:06.984Z,11.23
2022-11-06T20:03:33.934Z,11.24
2022-11-06T20:06:06.460Z,11.22
2022-11-06T20:08:34.534Z,11.23
2022-11-06T20:11:10.410Z,11.21
2022-11-06T20:13:39.079Z,11.20
2022-11-06T20:16:08.086Z,11.22
2022-11-06T20:18:35.914Z,11.21
2022-11-06T20:21:05.140Z,11.21
2022-11-06T20:23:32.435Z,11.20
2022-11-06T20:25:59.022Z,11.18
2022-11-06T20:28:26.357Z,11.20
2022-11-06T20:30:53.277Z,11.17
2022-11-06T20:33:20.315Z,11.20
2022-11-06T20:35:47.159Z,11.18
2022-11-06T20:38:14.465Z,11.17
2022-11-06T20:40:42.661Z,11.17
2022-11-06T20:43:09.758Z,11.15
2022-11-06T20:45:37.447Z,11.16
2022-11-06T20:48:06.110Z,11.17
2022-11-06T20:50:33.847Z,11.16
2022-11-06T20:53:00.741Z,11.16
2022-11-06T20:55:27.393Z,11.16
2022-11-06T20:57:54.046Z,11.14
2022-11-06T21:00:20.860Z,11.16
2022-11-06T21:02:52.856Z,11.14
2022-11-06T21:05:23.160Z,11.17
2022-11-06T21:07:49.649Z,11.16
2022-11-06T21:10:16.644Z,11.14
2022-11-06T21:12:43.967Z,11.16
2022-11-06T21:15:10.754Z,11.15
2022-11-06T21:17:41.479Z,11.14
2022-11-06T21:20:08.682Z,11.15
2022-11-06T21:22:35.301Z,11.16
2022-11-06T21:25:01.892Z,11.13
2022-11-06T21:27:28.460Z,11.17
2022-11-06T21:29:55.924Z,11.13
2022-11-06T21:32:22.532Z,11.17
2022-11-06T21:34:49.089Z,11.17
2022-11-06T21:37:15.633Z,11.17
2022-11-06T21:39:43.139Z,11.16
2022-11-06T21:42:09.875Z,11.16
2022-11-06T21:44:36.494Z,11.16
2022-11-06T21:47:03.031Z,11.16
2022-11-06T21:49:30.152Z,11.15
2022-11-06T21:52:16.664Z,11.13
2022-11-06T21:55:02.117Z,11.13
2022-11-06T21:57:29.640Z,11.13
2022-11-06T21:59:57.060Z,11.10
2022-11-06T22:02:23.731Z,11.11
2022-11-06T22:04:50.327Z,11.10
2022-11-06T22:07:17.457Z,11.10
2022-11-06T22:09:43.966Z,11.09
2022-11-06T22:12:10.540Z,11.08
2022-11-06T22:14:37.216Z,11.07
2022-11-06T22:17:03.847Z,11.06
2022-11-06T22:19:33.387Z,11.06
2022-11-06T22:21:59.948Z,11.03
2022-11-06T22:24:26.481Z,11.04
2022-11-06T22:26:54.654Z,11.02
2022-11-06T22:29:21.298Z,11.03
2022-11-06T22:31:47.835Z,11.02
2022-11-06T22:34:14.519Z,11.00
2022-11-06T22:36:41.636Z,10.99
2022-11-06T22:39:09.792Z,10.99
2022-11-06T22:41:38.064Z,10.96
2022-11-06T22:44:05.351Z,10.97
2022-11-06T22:46:32.478Z,10.95
2022-11-06T22:48:59.416Z,10.94
2022-11-06T22:51:29.638Z,10.95
2022-11-06T22:53:56.808Z,10.94
2022-11-06T22:56:25.181Z,10.94
2022-11-06T22:58:56.823Z,10.92
2022-11-06T23:01:25.475Z,10.93
2022-11-06T23:03:56.797Z,10.90
2022-11-06T23:06:25.265Z,10.93
2022-11-06T23:08:52.610Z,10.90
2022-11-06T23:11:19.233Z,10.91
2022-11-06T23:13:45.768Z,10.92
2022-11-06T23:16:18.145Z,10.90
2022-11-06T23:18:44.879Z,10.91
2022-11-06T23:21:16.981Z,10.90
2022-11-06T23:23:45.488Z,10.89
2022-11-06T23:26:18.441Z,10.91
2022-11-06T23:28:45.788Z,10.88
2022-11-06T23:31:14.363Z,10.89
2022-11-06T23:33:42.182Z,10.87
2022-11-06T23:36:10.923Z,10.86
2022-11-06T23:38:38.046Z,10.87
2022-11-06T23:41:28.446Z,10.87
2022-11-06T23:43:55.701Z,10.86
2022-11-06T23:46:25.516Z,10.86
2022-11-06T23:48:52.073Z,10.84
2022-11-06T23:51:19.435Z,10.85
2022-11-06T23:53:46.025Z,10.85
2022-11-06T23:56:13.111Z,10.86
2022-11-06T23:58:41.075Z,10.86
